Time;durP1;ratioP1;P1;durP2;ratioP2;P2;SDS_P1;SDS_P2;PMS_P1;PMS_P2;Temp;Humidity;BMP_temperature;BMP_pressure;BME280_temperature;BME280_humidity;BME280_pressure;Samples;Min_cycle;Max_cycle;Signal;HPM_P1;HPM_P2
2023/06/12 00:01:39;;;;;;;14.93;6.32;;;;;;;20.80;58.74;94639.97;5053467;28;20029;-81
2023/06/12 00:04:08;;;;;;;9.63;5.90;;;;;;;20.89;58.84;94658.63;5035208;28;20039;-81
2023/06/12 00:06:35;;;;;;;15.02;5.63;;;;;;;21.00;58.69;94679.28;5026753;28;20074;-81
2023/06/12 00:09:01;;;;;;;13.38;5.97;;;;;;;20.63;59.01;94651.09;5031872;28;20383;-81
2023/06/12 00:11:27;;;;;;;13.35;5.20;;;;;;;20.94;59.28;94679.91;5046332;28;20021;-81
2023/06/12 00:13:53;;;;;;;9.68;5.75;;;;;;;20.85;59.06;94668.53;5053073;28;20063;-81
2023/06/12 00:16:18;;;;;;;11.43;6.00;;;;;;;20.76;59.16;94660.63;5034155;28;20052;-81
2023/06/12 00:18:44;;;;;;;19.95;5.70;;;;;;;20.56;58.72;94630.16;5027115;28;20032;-81
2023/06/12 00:21:11;;;;;;;9.70;5.57;;;;;;;20.49;58.92;94616.53;5042372;28;20104;-81
2023/06/12 00:23:38;;;;;;;10.48;5.88;;;;;;;20.99;58.85;94703.91;5050843;28;20454;-81
2023/06/12 00:26:04;;;;;;;10.05;6.22;;;;;;;20.76;59.70;94701.06;5043593;28;20033;-81
2023/06/12 00:28:30;;;;;;;12.70;5.90;;;;;;;20.74;59.82;94701.44;5034731;28;20435;-81
2023/06/12 00:30:55;;;;;;;13.35;6.35;;;;;;;20.26;60.01;94615.56;5034213;28;20572;-81
2023/06/12 00:33:21;;;;;;;7.70;5.57;;;;;;;20.52;59.90;94639.31;5053425;28;20021;-81
2023/06/12 00:35:47;;;;;;;11.15;6.18;;;;;;;20.86;59.88;94695.13;5053350;28;20021;-81
2023/06/12 00:38:14;;;;;;;8.40;5.60;;;;;;;20.75;59.78;94676.03;5053376;28;20068;-81
2023/06/12 00:40:40;;;;;;;11.02;6.97;;;;;;;20.72;59.88;94684.81;5052099;28;20021;-81
2023/06/12 00:43:05;;;;;;;9.82;6.00;;;;;;;20.84;60.03;94696.63;5034205;28;20526;-82
2023/06/12 00:45:31;;;;;;;8.20;5.93;;;;;;;20.82;60.14;94697.00;5034789;28;20025;-81
2023/06/12 00:47:58;;;;;;;13.43;6.22;;;;;;;20.40;60.25;94634.78;5052407;28;20543;-81
2023/06/12 00:50:26;;;;;;;8.82;6.05;;;;;;;20.24;60.20;94615.91;5034586;28;20024;-81
2023/06/12 00:52:52;;;;;;;8.25;5.50;;;;;;;20.78;60.60;94709.56;5048129;28;20558;-81
2023/06/12 00:55:19;;;;;;;9.65;6.03;;;;;;;20.54;60.55;94678.22;5041974;28;20033;-81
2023/06/12 00:57:46;;;;;;;11.32;5.78;;;;;;;20.59;60.73;94677.97;5014536;28;20030;-81
2023/06/12 01:00:14;;;;;;;10.40;5.85;;;;;;;20.65;60.78;94684.66;5014757;28;20045;-81
2023/06/12 01:02:54;;;;;;;15.73;6.82;;;;;;;20.77;60.73;94702.63;5029215;28;20501;-81
2023/06/12 01:05:28;;;;;;;12.88;6.35;;;;;;;20.66;60.63;94707.78;5037517;28;20182;-81
2023/06/12 01:08:24;;;;;;;12.30;6.57;;;;;;;20.21;61.98;94675.84;5038298;28;20488;-81
2023/06/12 01:11:02;;;;;;;13.10;6.47;;;;;;;20.21;62.05;94665.06;5011763;28;20436;-81
2023/06/12 01:13:28;;;;;;;13.23;7.07;;;;;;;20.39;61.75;94671.69;5047338;28;20037;-80
2023/06/12 01:15:53;;;;;;;12.90;6.72;;;;;;;20.25;61.77;94640.91;5037263;28;20108;-81
2023/06/12 01:18:21;;;;;;;18.17;7.18;;;;;;;20.63;61.51;94686.13;5055522;28;20040;-82
2023/06/12 01:20:48;;;;;;;13.50;6.95;;;;;;;20.67;61.52;94687.00;5037132;28;20098;-81
2023/06/12 01:23:39;;;;;;;13.15;6.60;;;;;;;20.54;60.90;94640.50;5045533;28;20042;-81
2023/06/12 01:26:33;;;;;;;14.68;7.47;;;;;;;20.91;60.85;94697.56;4996715;28;20052;-81
2023/06/12 01:29:23;;;;;;;13.18;7.15;;;;;;;20.94;60.71;94688.00;5037250;28;20086;-81
2023/06/12 01:32:11;;;;;;;15.65;7.15;;;;;;;20.84;60.71;94666.97;5037739;28;20499;-81
2023/06/12 01:34:57;;;;;;;13.32;6.72;;;;;;;20.75;60.57;94651.75;5056408;28;20048;-81
2023/06/12 01:37:49;;;;;;;14.10;7.35;;;;;;;21.02;60.67;94685.13;5038887;28;20411;-81
2023/06/12 01:40:16;;;;;;;13.35;7.20;;;;;;;20.45;60.56;94607.56;5044912;28;20037;-81
2023/06/12 01:42:41;;;;;;;10.70;6.45;;;;;;;20.70;60.57;94643.19;5037341;28;20168;-81
2023/06/12 01:45:07;;;;;;;15.48;6.70;;;;;;;20.99;60.43;94695.81;5037781;28;20459;-81
2023/06/12 01:47:33;;;;;;;13.18;6.75;;;;;;;20.91;60.28;94680.59;5037394;28;20029;-81
2023/06/12 01:49:59;;;;;;;13.20;7.07;;;;;;;20.99;60.28;94698.50;5037169;28;20039;-81
2023/06/12 01:52:26;;;;;;;10.75;6.80;;;;;;;21.00;60.61;94697.38;5055441;28;20029;-83
2023/06/12 01:54:51;;;;;;;14.05;6.90;;;;;;;20.91;60.68;94702.16;5030288;28;20087;-81
2023/06/12 01:57:21;;;;;;;15.43;6.95;;;;;;;20.98;60.79;94692.34;5036004;28;20036;-82
2023/06/12 01:59:48;;;;;;;10.95;7.00;;;;;;;20.75;60.60;94657.16;5046769;28;20028;-81
2023/06/12 02:02:14;;;;;;;15.10;6.93;;;;;;;20.61;60.70;94635.28;5035228;28;20025;-81
2023/06/12 02:04:40;;;;;;;13.13;6.95;;;;;;;21.01;60.58;94707.81;5032796;28;20024;-81
2023/06/12 02:07:06;;;;;;;15.35;7.40;;;;;;;20.75;60.59;94673.31;5037863;28;20052;-82
2023/06/12 02:09:32;;;;;;;15.02;7.30;;;;;;;20.66;60.30;94655.81;5038301;28;20108;-81
2023/06/12 02:11:58;;;;;;;13.68;7.22;;;;;;;20.66;60.14;94643.13;5055442;28;20122;-81
2023/06/12 02:14:24;;;;;;;9.85;6.95;;;;;;;20.79;60.01;94658.03;5055313;28;20025;-82
2023/06/12 02:16:53;;;;;;;15.93;7.90;;;;;;;21.08;60.01;94707.97;5055002;28;20044;-81
2023/06/12 02:19:25;;;;;;;14.18;7.40;;;;;;;21.10;59.94;94707.63;5024163;28;20057;-81
2023/06/12 02:21:53;;;;;;;14.93;7.53;;;;;;;21.10;60.29;94702.25;5001460;28;20056;-81
2023/06/12 02:24:18;;;;;;;12.13;7.53;;;;;;;21.10;60.33;94708.41;5034058;28;20033;-81
2023/06/12 02:26:44;;;;;;;16.33;7.75;;;;;;;21.08;60.24;94702.59;5036003;28;20518;-81
2023/06/12 02:29:13;;;;;;;14.27;7.70;;;;;;;21.11;60.08;94717.28;5036801;28;20033;-81
2023/06/12 02:31:39;;;;;;;14.05;6.47;;;;;;;20.64;59.96;94642.66;5055086;28;20025;-81
2023/06/12 02:34:04;;;;;;;13.60;6.40;;;;;;;21.05;60.32;94705.22;5036661;28;20131;-81
2023/06/12 02:36:30;;;;;;;13.15;7.25;;;;;;;21.04;60.24;94712.53;5036621;28;20085;-81
2023/06/12 02:38:56;;;;;;;9.65;6.78;;;;;;;20.87;60.21;94696.72;5037297;28;20033;-81
2023/06/12 02:41:22;;;;;;;17.02;8.18;;;;;;;20.63;60.08;94659.97;5036622;28;20565;-81
2023/06/12 02:43:48;;;;;;;9.48;6.32;;;;;;;20.72;60.37;94675.94;5054666;28;20525;-81
2023/06/12 02:46:13;;;;;;;13.85;8.23;;;;;;;20.71;60.21;94683.25;5036202;28;20064;-80
2023/06/12 02:48:39;;;;;;;19.60;8.23;;;;;;;20.92;60.18;94726.09;5054430;28;20045;-81
2023/06/12 02:51:04;;;;;;;18.10;7.55;;;;;;;20.72;60.25;94703.69;5053274;28;20064;-81
2023/06/12 02:53:31;;;;;;;16.98;7.30;;;;;;;20.88;60.15;94733.31;5031449;28;20033;-81
2023/06/12 02:55:57;;;;;;;11.55;7.63;;;;;;;20.56;59.98;94681.34;5041519;28;20479;-82
2023/06/12 02:58:22;;;;;;;13.73;7.18;;;;;;;20.59;60.11;94682.56;5035627;28;20044;-81
2023/06/12 03:00:47;;;;;;;16.83;7.75;;;;;;;20.90;59.97;94736.44;5035109;28;20056;-81
2023/06/12 03:03:14;;;;;;;26.45;8.65;;;;;;;20.82;59.89;94723.16;5046775;28;20112;-81
2023/06/12 03:05:41;;;;;;;14.85;6.32;;;;;;;20.96;59.73;94736.97;5053139;28;20110;-81
2023/06/12 03:08:08;;;;;;;17.27;7.15;;;;;;;20.60;59.82;94684.91;5035130;28;20036;-81
2023/06/12 03:10:35;;;;;;;13.98;6.60;;;;;;;20.75;59.71;94723.75;5035848;28;20123;-82
2023/06/12 03:13:01;;;;;;;12.63;7.13;;;;;;;20.96;59.65;94745.03;5035725;28;20128;-81
2023/06/12 03:15:27;;;;;;;14.52;6.80;;;;;;;20.93;59.68;94743.81;5035565;28;20071;-81
2023/06/12 03:17:52;;;;;;;11.35;6.30;;;;;;;20.99;59.54;94747.03;5020043;28;20227;-81
2023/06/12 03:20:18;;;;;;;12.70;7.88;;;;;;;20.93;59.55;94721.47;5015954;28;20141;-81
2023/06/12 03:22:43;;;;;;;11.88;6.88;;;;;;;21.02;59.47;94739.03;5015171;28;20106;-81
2023/06/12 03:25:10;;;;;;;12.73;6.53;;;;;;;20.79;59.44;94713.84;5033159;28;20479;-81
2023/06/12 03:27:36;;;;;;;14.25;7.43;;;;;;;20.60;59.35;94684.13;5049121;28;20044;-81
2023/06/12 03:30:03;;;;;;;11.60;6.70;;;;;;;20.87;59.53;94742.53;5053852;28;20037;-81
2023/06/12 03:32:29;;;;;;;12.05;6.40;;;;;;;20.59;60.11;94737.25;5050207;28;20112;-81
2023/06/12 03:34:54;;;;;;;11.07;5.72;;;;;;;20.67;60.07;94738.94;5020428;28;20535;-81
2023/06/12 03:37:20;;;;;;;16.83;7.22;;;;;;;20.69;60.11;94744.00;5053297;28;20032;-81
2023/06/12 03:39:46;;;;;;;13.50;6.85;;;;;;;20.41;59.73;94691.00;5052887;28;20036;-81
2023/06/12 03:42:11;;;;;;;16.95;7.15;;;;;;;20.62;59.60;94712.28;5053458;28;20043;-81
2023/06/12 03:44:38;;;;;;;13.32;7.40;;;;;;;20.29;60.09;94688.34;5033805;28;20035;-81
2023/06/12 03:47:03;;;;;;;10.63;7.15;;;;;;;20.07;60.04;94642.38;5044565;28;20041;-81
2023/06/12 03:49:29;;;;;;;12.13;7.70;;;;;;;20.73;59.57;94726.03;5045679;28;20052;-81
2023/06/12 03:51:55;;;;;;;10.93;7.32;;;;;;;20.87;59.44;94739.03;5039832;28;20041;-81
2023/06/12 03:54:21;;;;;;;19.23;7.95;;;;;;;20.91;59.29;94740.69;5030337;28;20340;-81
2023/06/12 03:56:48;;;;;;;12.82;8.02;;;;;;;20.75;59.26;94719.13;5031489;28;20036;-81
2023/06/12 03:59:14;;;;;;;18.70;7.88;;;;;;;20.58;59.17;94679.09;5021428;28;20037;-81
2023/06/12 04:01:42;;;;;;;17.42;7.20;;;;;;;20.72;59.54;94716.38;5047669;28;20033;-81
2023/06/12 04:04:09;;;;;;;11.38;6.97;;;;;;;20.59;59.34;94704.13;5051344;28;20044;-81
2023/06/12 04:06:40;;;;;;;12.43;5.85;;;;;;;20.72;59.37;94738.72;5030914;28;20049;-81
2023/06/12 04:09:08;;;;;;;10.55;6.35;;;;;;;20.68;59.24;94726.25;5032382;28;20518;-81
2023/06/12 04:11:40;;;;;;;18.08;7.97;;;;;;;20.27;60.23;94701.38;5040215;28;20075;-81
2023/06/12 04:14:06;;;;;;;16.38;8.02;;;;;;;20.58;59.76;94724.88;5044298;28;20037;-81
2023/06/12 04:16:32;;;;;;;17.33;7.35;;;;;;;20.17;59.78;94648.03;5050262;28;20444;-81
2023/06/12 04:19:03;;;;;;;21.98;8.95;;;;;;;20.82;59.42;94723.16;5043735;28;20116;-81
2023/06/12 04:21:32;;;;;;;19.92;8.73;;;;;;;20.67;59.32;94692.41;5030157;28;20527;-81
2023/06/12 04:24:15;;;;;;;15.90;8.15;;;;;;;20.97;58.87;94720.44;5040733;28;20045;-82
2023/06/12 04:26:41;;;;;;;21.92;8.60;;;;;;;20.92;58.84;94723.38;5024511;28;20120;-82
2023/06/12 04:29:08;;;;;;;19.27;7.93;;;;;;;20.87;58.51;94699.41;5046080;28;20060;-82
2023/06/12 04:31:34;;;;;;;14.00;8.10;;;;;;;21.15;58.03;94729.69;5037882;28;20112;-81
2023/06/12 04:34:00;;;;;;;17.17;9.10;;;;;;;20.89;58.19;94701.75;5029984;28;20504;-82
2023/06/12 04:36:25;;;;;;;12.43;8.50;;;;;;;20.58;58.28;94654.84;5048692;28;20028;-82
2023/06/12 04:38:51;;;;;;;19.38;8.82;;;;;;;20.88;58.27;94719.84;5025799;28;20059;-82
2023/06/12 04:41:27;;;;;;;11.95;8.43;;;;;;;21.05;58.19;94734.88;5049550;28;20059;-82
2023/06/12 04:43:58;;;;;;;15.32;8.82;;;;;;;20.95;57.95;94722.69;5034410;28;20037;-82
2023/06/12 04:46:25;;;;;;;13.10;8.88;;;;;;;20.78;57.72;94685.31;5034495;28;20072;-82
2023/06/12 04:48:51;;;;;;;15.82;8.82;;;;;;;20.76;57.93;94674.09;5026962;28;20622;-82
2023/06/12 04:51:17;;;;;;;11.70;7.43;;;;;;;21.27;57.56;94733.47;5034993;28;20123;-83
2023/06/12 04:53:43;;;;;;;13.25;7.70;;;;;;;21.39;57.43;94730.63;5029966;28;20067;-84
2023/06/12 04:56:09;;;;;;;16.17;7.85;;;;;;;21.34;57.49;94710.13;5031225;28;20053;-83
2023/06/12 04:58:40;;;;;;;18.95;8.40;;;;;;;21.20;57.17;94680.16;5022990;28;20025;-82
2023/06/12 05:01:06;;;;;;;12.10;7.80;;;;;;;21.29;57.10;94688.81;5032457;28;20296;-81
2023/06/12 05:03:32;;;;;;;14.32;7.95;;;;;;;21.17;56.95;94660.06;5031148;28;20037;-81
2023/06/12 05:05:58;;;;;;;15.45;8.07;;;;;;;21.65;56.88;94724.66;5024467;28;20115;-85
2023/06/12 05:08:24;;;;;;;15.48;8.00;;;;;;;21.69;56.76;94720.09;5028740;28;20105;-84
2023/06/12 05:10:50;;;;;;;17.50;9.75;;;;;;;21.51;56.61;94687.38;5026737;28;20580;-83
2023/06/12 05:13:15;;;;;;;18.88;10.20;;;;;;;21.44;56.40;94661.00;5031335;28;20039;-81
2023/06/12 05:15:41;;;;;;;17.45;8.63;;;;;;;21.87;56.19;94716.63;5027299;28;20208;-83
2023/06/12 05:18:07;;;;;;;20.60;8.98;;;;;;;22.05;56.01;94740.53;5012878;28;20113;-84
2023/06/12 05:20:32;;;;;;;19.63;9.48;;;;;;;21.94;55.77;94724.09;5026549;28;20484;-83
2023/06/12 05:22:58;;;;;;;18.40;10.18;;;;;;;21.63;55.87;94662.94;5022536;28;20386;-83
2023/06/12 05:25:23;;;;;;;16.42;10.07;;;;;;;22.00;55.90;94730.78;5016566;28;20101;-85
2023/06/12 05:27:49;;;;;;;20.58;9.70;;;;;;;21.97;55.76;94731.47;5019559;28;20037;-83
2023/06/12 05:30:15;;;;;;;22.92;9.85;;;;;;;22.24;55.32;94743.97;5029769;28;20034;-82
2023/06/12 05:32:40;;;;;;;23.00;9.70;;;;;;;22.28;55.49;94731.31;5023338;28;20049;-83
2023/06/12 05:35:07;;;;;;;31.65;10.23;;;;;;;22.40;54.95;94738.47;5022970;28;20037;-83
2023/06/12 05:37:33;;;;;;;17.35;9.52;;;;;;;22.16;55.01;94692.88;5020300;28;20091;-85
2023/06/12 05:39:58;;;;;;;24.38;10.23;;;;;;;22.07;54.50;94676.13;5024787;28;20067;-84
2023/06/12 05:42:24;;;;;;;17.63;9.98;;;;;;;22.25;54.05;94701.53;5008340;28;20026;-84
2023/06/12 05:44:50;;;;;;;22.13;9.63;;;;;;;22.53;53.80;94739.88;5022936;28;20112;-85
2023/06/12 05:47:15;;;;;;;20.73;9.43;;;;;;;21.85;53.82;94632.50;5017530;28;20618;-82
2023/06/12 05:49:41;;;;;;;16.90;9.15;;;;;;;22.32;53.83;94712.47;5016214;28;20044;-81
2023/06/12 05:52:07;;;;;;;16.63;8.25;;;;;;;22.13;54.29;94707.09;5015267;28;20440;-81
2023/06/12 05:54:33;;;;;;;21.15;9.73;;;;;;;22.13;54.58;94683.56;5013076;28;20045;-83
2023/06/12 05:57:00;;;;;;;13.00;8.98;;;;;;;22.30;54.28;94714.75;5013784;28;20041;-83
2023/06/12 05:59:26;;;;;;;17.50;8.45;;;;;;;22.07;53.93;94659.94;5022525;28;20227;-82
2023/06/12 06:01:51;;;;;;;14.52;8.23;;;;;;;22.41;54.19;94723.06;5020169;28;20041;-82
2023/06/12 06:04:17;;;;;;;14.25;8.85;;;;;;;22.65;54.46;94755.16;5020444;28;20056;-83
2023/06/12 06:06:42;;;;;;;18.15;9.38;;;;;;;22.58;53.66;94723.34;5029019;28;20064;-83
2023/06/12 06:09:08;;;;;;;22.95;8.75;;;;;;;22.83;53.55;94750.84;5038513;28;20351;-82
2023/06/12 06:11:34;;;;;;;18.33;8.95;;;;;;;22.87;53.71;94742.78;5034059;28;20029;-85
2023/06/12 06:13:59;;;;;;;18.55;9.32;;;;;;;22.71;53.26;94710.44;5044374;28;20037;-88
2023/06/12 06:16:25;;;;;;;14.02;8.68;;;;;;;22.82;53.33;94711.41;5034062;28;20033;-85
2023/06/12 06:18:52;;;;;;;15.25;8.43;;;;;;;22.68;53.24;94679.50;5029184;28;20040;-87
2023/06/12 06:21:18;;;;;;;25.95;9.80;;;;;;;22.81;53.40;94690.19;5024381;28;20443;-84
2023/06/12 06:23:44;;;;;;;15.80;8.15;;;;;;;23.13;53.06;94742.03;5030653;28;20047;-84
2023/06/12 06:26:10;;;;;;;16.00;9.18;;;;;;;22.80;52.81;94672.38;5028724;28;20037;-83
2023/06/12 06:28:36;;;;;;;18.25;9.30;;;;;;;23.15;52.55;94718.88;5009645;28;20078;-83
2023/06/12 06:31:03;;;;;;;16.52;9.73;;;;;;;22.72;52.55;94666.06;5030728;28;20045;-84
2023/06/12 06:33:29;;;;;;;16.02;8.48;;;;;;;23.15;52.80;94708.06;5035672;28;20025;-82
2023/06/12 06:35:55;;;;;;;17.38;8.40;;;;;;;23.36;52.88;94740.06;5026406;28;20055;-85
2023/06/12 06:38:24;;;;;;;13.57;8.43;;;;;;;23.43;53.00;94726.63;5003254;28;20036;-84
2023/06/12 06:40:50;;;;;;;14.57;8.52;;;;;;;23.53;52.80;94741.50;5015627;28;20096;-82
2023/06/12 06:43:15;;;;;;;21.35;8.80;;;;;;;23.51;52.65;94716.69;5013609;28;20043;-82
2023/06/12 06:45:40;;;;;;;14.02;8.63;;;;;;;23.69;52.82;94737.47;5023781;28;20029;-83
2023/06/12 06:48:08;;;;;;;25.45;8.93;;;;;;;23.35;52.71;94662.72;5022792;28;20109;-83
2023/06/12 06:50:33;;;;;;;17.00;8.82;;;;;;;23.68;52.03;94708.03;5041404;28;20037;-83
2023/06/12 06:52:59;;;;;;;17.20;9.25;;;;;;;23.92;51.55;94736.59;5022465;28;20037;-83
2023/06/12 06:55:24;;;;;;;13.25;7.70;;;;;;;23.85;51.56;94710.97;5021979;28;20027;-82
2023/06/12 06:57:54;;;;;;;20.42;7.75;;;;;;;23.91;50.88;94716.06;5021880;28;20292;-84
2023/06/12 07:00:21;;;;;;;21.17;6.97;;;;;;;24.17;50.65;94745.78;5020667;28;20057;-82
2023/06/12 07:02:48;;;;;;;24.40;7.95;;;;;;;24.03;51.22;94729.38;5006503;28;20033;-81
2023/06/12 07:05:14;;;;;;;18.80;8.10;;;;;;;23.79;50.99;94682.69;5036103;28;20843;-83
2023/06/12 07:07:44;;;;;;;29.10;8.15;;;;;;;24.06;51.50;94717.78;5017586;28;20032;-82
2023/06/12 07:10:10;;;;;;;22.30;8.50;;;;;;;24.08;51.23;94716.28;5030022;28;20028;-82
2023/06/12 07:12:35;;;;;;;24.27;8.65;;;;;;;23.89;51.79;94696.69;5017662;28;20033;-83
2023/06/12 07:15:03;;;;;;;26.90;8.50;;;;;;;23.94;51.87;94697.16;5036466;28;20430;-82
2023/06/12 07:17:29;;;;;;;15.23;7.15;;;;;;;24.01;51.71;94710.78;5021127;28;20037;-81
2023/06/12 07:19:54;;;;;;;13.93;6.88;;;;;;;24.13;51.88;94718.66;5038709;28;20415;-82
2023/06/12 07:22:20;;;;;;;25.60;8.00;;;;;;;24.06;51.93;94704.25;5023720;28;20032;-83
2023/06/12 07:24:45;;;;;;;17.55;6.40;;;;;;;24.25;50.96;94708.75;5026607;28;20033;-85
2023/06/12 07:27:12;;;;;;;17.90;6.38;;;;;;;24.29;50.39;94709.53;5016063;28;20076;-84
2023/06/12 07:29:38;;;;;;;17.25;6.82;;;;;;;24.28;49.97;94703.34;5025465;28;20031;-83
2023/06/12 07:32:04;;;;;;;16.15;6.60;;;;;;;24.56;50.27;94736.13;5019160;28;20128;-83
2023/06/12 07:34:29;;;;;;;24.58;6.35;;;;;;;24.20;49.99;94661.06;5023497;28;20036;-81
2023/06/12 07:36:56;;;;;;;10.48;5.40;;;;;;;24.82;49.30;94742.59;5042676;28;20033;-83
2023/06/12 07:39:21;;;;;;;15.02;5.75;;;;;;;24.74;49.01;94706.50;5044500;28;20033;-83
2023/06/12 07:41:47;;;;;;;18.25;6.30;;;;;;;24.39;48.99;94641.13;5025356;28;20032;-83
2023/06/12 07:44:13;;;;;;;19.33;6.35;;;;;;;25.04;49.21;94740.84;5020131;28;20036;-84
2023/06/12 07:46:41;;;;;;;16.52;5.63;;;;;;;25.13;48.62;94742.09;5024828;28;20044;-82
2023/06/12 07:49:10;;;;;;;27.25;6.38;;;;;;;24.48;48.53;94653.22;5046179;28;20041;-82
2023/06/12 07:51:36;;;;;;;7.35;3.92;;;;;;;24.59;47.47;94653.28;5026379;28;20190;-83
2023/06/12 07:54:02;;;;;;;13.98;5.55;;;;;;;24.80;47.77;94707.69;5040588;28;20044;-83
2023/06/12 07:56:30;;;;;;;13.55;4.78;;;;;;;24.91;46.89;94694.25;5042863;28;20322;-82
2023/06/12 07:58:55;;;;;;;9.93;5.00;;;;;;;25.09;46.87;94713.41;5026388;28;20580;-82
2023/06/12 08:01:22;;;;;;;10.75;4.50;;;;;;;25.11;47.38;94700.22;5038932;28;20040;-82
2023/06/12 08:03:47;;;;;;;7.60;4.78;;;;;;;25.13;47.11;94687.06;5042081;28;20153;-83
2023/06/12 08:06:15;;;;;;;15.90;4.78;;;;;;;25.19;46.65;94697.16;5020051;28;20117;-83
2023/06/12 08:08:47;;;;;;;14.25;6.13;;;;;;;25.62;46.30;94740.91;5041232;28;20034;-81
2023/06/12 08:11:14;;;;;;;11.68;4.28;;;;;;;25.41;44.96;94710.88;5022111;28;20040;-82
2023/06/12 08:13:42;;;;;;;7.82;4.07;;;;;;;25.75;45.14;94742.13;5033398;28;20037;-84
2023/06/12 08:16:08;;;;;;;6.25;4.18;;;;;;;24.42;44.74;94508.34;5041412;28;20135;-85
2023/06/12 08:18:33;;;;;;;11.38;4.43;;;;;;;25.99;44.73;94730.59;5023692;28;20056;-86
2023/06/12 08:20:59;;;;;;;10.52;4.80;;;;;;;25.79;45.85;94690.53;5042637;28;20041;-85
2023/06/12 08:23:25;;;;;;;25.65;5.00;;;;;;;25.97;44.49;94708.47;5004570;28;20036;-83
2023/06/12 08:25:50;;;;;;;13.60;4.70;;;;;;;25.95;44.36;94686.34;5036577;28;20711;-85
2023/06/12 08:28:16;;;;;;;13.77;4.40;;;;;;;25.95;43.91;94721.66;5026533;28;20151;-85
2023/06/12 08:30:41;;;;;;;15.88;5.00;;;;;;;25.90;43.95;94692.16;5021526;28;20041;-86
2023/06/12 08:33:07;;;;;;;9.73;4.43;;;;;;;25.84;43.74;94706.47;5012846;28;20475;-84
2023/06/12 08:35:34;;;;;;;15.90;4.38;;;;;;;26.17;44.05;94729.91;5032122;28;20036;-83
2023/06/12 08:38:00;;;;;;;10.27;4.07;;;;;;;25.70;44.33;94650.94;5012687;28;20033;-83
2023/06/12 08:40:26;;;;;;;11.70;4.07;;;;;;;25.98;42.98;94680.16;5028132;28;20043;-85
2023/06/12 08:42:51;;;;;;;10.93;4.10;;;;;;;26.16;42.83;94682.16;5018450;28;20047;-87
2023/06/12 08:45:20;;;;;;;11.45;4.45;;;;;;;26.34;42.92;94707.44;5011332;28;20032;-84
2023/06/12 08:47:50;;;;;;;12.40;5.00;;;;;;;26.41;42.80;94723.75;5012508;28;20488;-83
2023/06/12 08:50:19;;;;;;;20.77;6.03;;;;;;;25.75;42.87;94653.28;5032027;28;20029;-84
2023/06/12 08:52:46;;;;;;;7.38;4.13;;;;;;;25.79;43.14;94734.00;5014395;28;20037;-83
2023/06/12 08:55:14;;;;;;;10.98;4.22;;;;;;;25.64;43.36;94733.13;5012714;28;20032;-81
2023/06/12 08:57:41;;;;;;;9.13;4.55;;;;;;;25.42;44.25;94726.00;5009553;28;20029;-82
2023/06/12 09:00:11;;;;;;;8.50;4.43;;;;;;;25.89;43.78;94735.97;5029973;28;20022;-83
2023/06/12 09:02:46;;;;;;;10.57;4.72;;;;;;;24.57;45.19;94693.56;5028587;28;20113;-83
2023/06/12 09:05:26;;;;;;;12.43;4.95;;;;;;;25.28;43.94;94684.06;5011433;28;20118;-84
2023/06/12 09:07:53;;;;;;;10.52;4.68;;;;;;;25.27;43.67;94708.84;5009191;28;20036;-84
2023/06/12 09:10:18;;;;;;;13.43;4.50;;;;;;;24.34;46.73;94715.41;5020212;28;20027;-83
2023/06/12 09:12:45;;;;;;;10.95;4.57;;;;;;;23.93;45.45;94610.88;5032252;28;20547;-83
2023/06/12 09:15:18;;;;;;;15.32;4.95;;;;;;;24.84;45.13;94694.19;5019025;28;20115;-83
2023/06/12 09:17:49;;;;;;;19.15;5.80;;;;;;;24.80;47.83;94696.84;5030891;28;20504;-83
2023/06/12 09:20:41;;;;;;;14.10;6.07;;;;;;;24.25;50.23;94722.28;5029253;28;20040;-82
2023/06/12 09:23:07;;;;;;;15.20;5.55;;;;;;;23.72;51.62;94679.88;4997241;28;20479;-82
2023/06/12 09:25:37;;;;;;;12.68;4.70;;;;;;;23.15;51.60;94612.63;5018019;28;20089;-83
2023/06/12 09:28:08;;;;;;;14.73;5.20;;;;;;;23.18;51.69;94644.34;5032430;28;20040;-83
2023/06/12 09:30:42;;;;;;;12.32;4.60;;;;;;;23.03;53.72;94717.19;5038104;28;20120;-82
2023/06/12 09:33:10;;;;;;;22.67;5.32;;;;;;;22.21;53.84;94642.06;5017533;28;20094;-81
2023/06/12 09:35:54;;;;;;;9.80;4.60;;;;;;;22.24;52.74;94600.84;5032580;28;20056;-83
2023/06/12 09:38:33;;;;;;;13.70;5.15;;;;;;;22.61;52.71;94636.16;5013112;28;20029;-82
2023/06/12 09:41:03;;;;;;;10.32;4.43;;;;;;;23.14;51.09;94673.25;5022138;28;20268;-83
2023/06/12 09:43:31;;;;;;;13.52;5.07;;;;;;;23.56;50.65;94702.88;5022670;28;20100;-83
2023/06/12 09:46:03;;;;;;;10.40;4.35;;;;;;;23.44;49.95;94691.09;5020524;28;20193;-82
2023/06/12 09:48:40;;;;;;;11.02;4.38;;;;;;;23.63;49.38;94681.31;5023162;28;20056;-83
2023/06/12 09:51:08;;;;;;;18.42;5.45;;;;;;;24.38;47.86;94670.16;5036501;28;20021;-81
2023/06/12 09:53:39;;;;;;;11.43;4.97;;;;;;;24.72;46.90;94672.78;5036284;28;20028;-81
2023/06/12 09:56:06;;;;;;;10.05;4.63;;;;;;;24.57;46.72;94623.06;5017786;28;20071;-82
2023/06/12 09:58:36;;;;;;;8.68;5.60;;;;;;;24.43;48.34;94620.25;5015035;28;20098;-83
2023/06/12 10:01:05;;;;;;;14.13;4.57;;;;;;;25.51;45.19;94648.50;5021866;28;21677;-83
2023/06/12 10:03:36;;;;;;;13.27;4.57;;;;;;;25.62;45.01;94692.03;5021607;28;20143;-81
2023/06/12 10:06:08;;;;;;;9.77;4.55;;;;;;;25.40;45.21;94655.03;5015922;28;20061;-82
2023/06/12 10:08:34;;;;;;;15.23;4.68;;;;;;;25.91;43.09;94680.13;5019377;28;20041;-83
2023/06/12 10:11:04;;;;;;;5.53;3.72;;;;;;;25.69;43.87;94660.25;5019517;28;20060;-83
2023/06/12 10:13:30;;;;;;;12.25;4.28;;;;;;;25.04;44.77;94645.91;5033737;28;20456;-83
2023/06/12 10:16:00;;;;;;;5.65;3.40;;;;;;;25.22;44.38;94627.81;5041136;28;20029;-83
2023/06/12 10:18:28;;;;;;;11.20;3.90;;;;;;;25.69;43.58;94657.53;5004329;28;20029;-82
2023/06/12 10:20:54;;;;;;;7.18;3.50;;;;;;;25.41;44.05;94670.16;5038661;28;20032;-82
2023/06/12 10:23:22;;;;;;;6.03;3.90;;;;;;;24.75;42.97;94644.91;5040683;28;20060;-83
2023/06/12 10:25:49;;;;;;;5.63;3.28;;;;;;;24.65;43.20;94642.88;5017740;28;20464;-83
2023/06/12 10:28:15;;;;;;;5.50;3.08;;;;;;;24.09;43.83;94614.13;5024878;28;20139;-83
2023/06/12 10:31:13;;;;;;;6.43;3.70;;;;;;;24.32;44.66;94689.84;5041105;28;20032;-82
2023/06/12 10:34:10;;;;;;;6.30;3.80;;;;;;;24.41;44.84;94674.81;5046904;28;20031;-85
2023/06/12 10:36:47;;;;;;;5.18;3.10;;;;;;;24.69;43.54;94677.00;5026629;28;20033;-83
2023/06/12 10:39:25;;;;;;;7.88;3.45;;;;;;;24.06;43.90;94661.69;5027790;28;20658;-81
2023/06/12 10:42:06;;;;;;;5.50;2.80;;;;;;;23.92;44.34;94661.53;5022661;28;20068;-81
2023/06/12 10:44:38;;;;;;;6.45;3.20;;;;;;;24.00;44.62;94673.22;5026507;28;20156;-82
2023/06/12 10:47:05;;;;;;;9.95;3.20;;;;;;;23.42;45.56;94581.66;5042317;28;20037;-81
2023/06/12 10:49:51;;;;;;;9.38;3.53;;;;;;;24.16;44.90;94671.84;5024375;28;20515;-81
2023/06/12 10:52:20;;;;;;;8.57;3.67;;;;;;;24.04;45.39;94652.34;5041266;28;20131;-82
2023/06/12 10:54:46;;;;;;;8.05;3.55;;;;;;;24.45;44.37;94655.88;5023060;28;20044;-82
2023/06/12 10:57:11;;;;;;;8.80;3.33;;;;;;;24.68;44.24;94650.28;5020981;28;20021;-82
2023/06/12 10:59:37;;;;;;;6.70;3.60;;;;;;;23.63;43.83;94552.16;5036210;28;20074;-82
2023/06/12 11:02:03;;;;;;;11.40;3.85;;;;;;;24.27;44.65;94628.63;5037578;28;20442;-82
2023/06/12 11:04:39;;;;;;;8.60;3.47;;;;;;;24.48;44.06;94661.34;5020853;28;20037;-82
2023/06/12 11:07:05;;;;;;;6.85;3.92;;;;;;;24.37;42.69;94610.91;5002645;28;20064;-81
2023/06/12 11:09:40;;;;;;;10.00;3.70;;;;;;;24.86;42.93;94635.69;5019689;28;20121;-81
2023/06/12 11:12:07;;;;;;;4.80;3.10;;;;;;;24.61;42.14;94586.72;5021469;28;20041;-81
2023/06/12 11:14:33;;;;;;;6.38;3.05;;;;;;;24.30;43.30;94608.13;5020893;28;20033;-81
2023/06/12 11:16:59;;;;;;;10.35;4.07;;;;;;;24.99;42.79;94647.03;5034757;28;20105;-83
2023/06/12 11:19:30;;;;;;;6.40;4.00;;;;;;;25.11;41.03;94614.16;5022839;28;20181;-82
2023/06/12 11:21:56;;;;;;;3.88;2.47;;;;;;;25.31;39.50;94620.09;5022768;28;20032;-82
2023/06/12 11:24:22;;;;;;;6.90;3.03;;;;;;;25.96;38.41;94643.66;5021768;28;20029;-82
2023/06/12 11:26:52;;;;;;;8.00;3.10;;;;;;;26.06;37.56;94607.59;5023124;28;20029;-82
2023/06/12 11:29:21;;;;;;;3.97;2.92;;;;;;;26.38;36.82;94613.88;5037254;28;20439;-83
2023/06/12 11:31:59;;;;;;;8.32;2.88;;;;;;;26.02;36.76;94572.25;5035518;28;20228;-81